createdAt,value
2022-08-22T08:03:55.625Z,91.33
2022-08-22T08:04:30.313Z,90.75
2022-08-22T08:05:28.659Z,92.20
2022-08-22T08:06:28.695Z,92.83
2022-08-22T08:07:28.769Z,90.02
2022-08-22T08:08:28.796Z,95.00
2022-08-22T08:09:28.850Z,92.19
2022-08-22T08:10:28.906Z,87.68
2022-08-22T08:11:28.997Z,88.47
2022-08-22T08:12:29.022Z,90.46
2022-08-22T08:13:29.077Z,90.94
2022-08-22T08:14:29.126Z,91.66
2022-08-22T08:15:29.186Z,89.97
2022-08-22T08:16:29.279Z,91.81
2022-08-22T08:17:32.251Z,90.16
2022-08-22T08:18:29.360Z,93.45
2022-08-22T08:19:29.408Z,91.17
2022-08-22T08:20:29.465Z,89.04
2022-08-22T08:21:29.559Z,92.38
2022-08-22T08:22:29.578Z,89.47
2022-08-22T08:23:29.643Z,91.22
2022-08-22T08:24:40.203Z,93.88
2022-08-22T08:25:29.794Z,89.09
2022-08-22T08:26:29.856Z,90.70
2022-08-22T08:27:29.906Z,92.24
2022-08-22T08:28:29.972Z,91.72
2022-08-22T08:29:30.104Z,93.37
2022-08-22T08:30:30.088Z,96.89
2022-08-22T08:31:30.139Z,92.78
2022-08-22T08:32:30.267Z,94.37
2022-08-22T08:33:30.251Z,92.00
2022-08-22T08:34:30.327Z,92.68
2022-08-22T08:35:35.346Z,92.00
2022-08-22T08:36:31.350Z,94.04
2022-08-22T08:37:30.459Z,95.01
2022-08-22T08:38:30.546Z,99.99
2022-08-22T08:39:35.069Z,99.31
2022-08-22T08:40:30.726Z,94.32
2022-08-22T08:41:30.701Z,94.90
2022-08-22T08:42:30.883Z,91.99
2022-08-22T08:43:31.286Z,90.50
2022-08-22T08:44:31.792Z,93.85
2022-08-22T08:45:30.876Z,94.86
2022-08-22T08:46:30.940Z,98.49
2022-08-22T08:47:32.963Z,96.02
2022-08-22T08:48:31.048Z,95.78
2022-08-22T08:49:33.652Z,97.96
2022-08-22T08:50:31.164Z,93.02
2022-08-22T08:51:31.217Z,95.39
2022-08-22T08:52:31.277Z,97.38
2022-08-22T08:53:31.394Z,96.06
2022-08-22T08:54:31.387Z,93.11
2022-08-22T08:55:31.477Z,92.86
2022-08-22T08:56:31.502Z,89.32
2022-08-22T08:57:53.420Z,89.92
2022-08-22T08:58:31.833Z,93.17
2022-08-22T08:59:31.735Z,96.89
2022-08-22T09:00:31.738Z,97.91
2022-08-22T09:01:31.911Z,95.78
2022-08-22T09:02:34.967Z,96.89
2022-08-22T09:03:31.907Z,98.05
2022-08-22T09:04:32.315Z,97.67
2022-08-22T09:05:32.033Z,97.18
2022-08-22T09:06:32.119Z,96.70
2022-08-22T09:07:32.185Z,97.81
2022-08-22T09:08:32.194Z,98.20
2022-08-22T09:09:32.338Z,93.94
2022-08-22T09:10:32.365Z,93.51
2022-08-22T09:11:32.464Z,93.79
2022-08-22T09:12:32.955Z,95.29
2022-08-22T09:13:34.528Z,94.04
2022-08-22T09:14:32.593Z,96.36
2022-08-22T09:16:32.744Z,93.99
2022-08-22T09:17:32.748Z,95.68
2022-08-22T09:18:32.802Z,94.52
2022-08-22T09:19:32.935Z,99.99
2022-08-22T09:20:32.951Z,95.43
2022-08-22T09:21:32.987Z,92.49
2022-08-22T09:22:33.442Z,96.60
2022-08-22T09:23:33.095Z,92.33
2022-08-22T09:24:33.217Z,95.53
2022-08-22T09:25:38.386Z,96.98
2022-08-22T09:26:33.285Z,92.08
2022-08-22T09:27:33.321Z,89.13
2022-08-22T09:28:33.356Z,92.86
2022-08-22T09:29:33.416Z,92.57
2022-08-22T09:30:33.551Z,89.37
2022-08-22T09:31:48.239Z,89.47
2022-08-22T09:32:33.618Z,89.31
2022-08-22T09:33:33.683Z,91.01
2022-08-22T09:34:33.750Z,89.21
2022-08-22T09:35:33.859Z,88.28
2022-08-22T09:36:33.914Z,86.87
2022-08-22T09:37:33.909Z,84.63
2022-08-22T09:38:34.010Z,83.44
2022-08-22T09:39:34.007Z,85.88
2022-08-22T09:40:34.060Z,90.48
2022-08-22T09:41:34.148Z,90.91
2022-08-22T09:42:34.210Z,90.57
2022-08-22T09:43:34.316Z,89.35
2022-08-22T09:44:34.301Z,86.87
2022-08-22T09:45:34.374Z,85.74
2022-08-22T09:46:36.850Z,84.14
2022-08-22T09:47:34.531Z,85.31
2022-08-22T09:48:34.536Z,86.81
2022-08-22T09:49:34.709Z,84.14
2022-08-22T09:50:34.641Z,84.45
2022-08-22T09:51:37.136Z,86.99
2022-08-22T09:52:36.824Z,88.73
2022-08-22T09:53:36.622Z,87.15
2022-08-22T09:54:34.949Z,91.38
2022-08-22T09:55:35.729Z,94.52
2022-08-22T09:56:38.034Z,97.08
2022-08-22T09:57:35.072Z,95.59
2022-08-22T09:58:40.265Z,97.13
2022-08-22T09:59:36.759Z,91.47
2022-08-22T10:00:35.193Z,90.74
2022-08-22T10:01:36.864Z,92.15
2022-08-22T10:02:35.924Z,92.19
2022-08-22T10:03:35.365Z,93.51
2022-08-22T10:04:35.459Z,94.37
2022-08-22T10:05:44.275Z,94.62
2022-08-22T10:06:35.549Z,94.52
2022-08-22T10:08:05.235Z,93.07
2022-08-22T10:08:35.689Z,92.05
2022-08-22T10:09:36.423Z,93.69
2022-08-22T10:10:35.768Z,90.59
2022-08-22T10:11:39.031Z,92.24
2022-08-22T10:12:36.466Z,91.02
2022-08-22T10:13:38.181Z,91.27
2022-08-22T10:14:38.041Z,93.11
2022-08-22T10:15:36.063Z,94.81
2022-08-22T10:16:36.974Z,96.06
2022-08-22T10:17:36.200Z,93.01
2022-08-22T10:18:36.267Z,94.07
2022-08-22T10:19:43.994Z,88.86
2022-08-22T10:20:36.897Z,87.32
2022-08-22T10:21:36.447Z,87.75
2022-08-22T10:22:36.531Z,88.14
2022-08-22T10:24:02.430Z,87.04
2022-08-22T10:24:51.236Z,89.32
2022-08-22T10:25:36.754Z,90.40
2022-08-22T10:26:41.414Z,93.07
2022-08-22T10:27:36.807Z,93.07
2022-08-22T10:28:36.899Z,92.73
2022-08-22T10:29:37.897Z,94.18
2022-08-22T10:30:37.070Z,93.70
2022-08-22T10:31:45.124Z,94.47
2022-08-22T10:32:39.898Z,96.89
2022-08-22T10:33:41.976Z,96.17
2022-08-22T10:34:59.436Z,97.18
2022-08-22T10:35:37.867Z,96.80
2022-08-22T10:36:39.867Z,96.80
2022-08-22T10:37:39.415Z,97.81
2022-08-22T10:38:52.425Z,98.49
2022-08-22T11:12:18.999Z,91.05
2022-08-22T11:13:19.012Z,90.67
2022-08-22T11:14:19.074Z,91.00
2022-08-22T11:15:24.180Z,90.61
2022-08-22T11:16:19.201Z,90.42
2022-08-22T11:17:31.067Z,89.39
2022-08-22T11:18:26.139Z,87.93
2022-08-22T11:19:20.136Z,87.70
2022-08-22T11:20:19.793Z,90.71
2022-08-22T11:21:19.492Z,90.42
2022-08-22T11:22:24.686Z,90.03
2022-08-22T11:23:19.581Z,88.92
2022-08-22T11:24:34.753Z,90.85
2022-08-22T11:25:28.665Z,93.62
2022-08-22T11:26:29.333Z,88.90
2022-08-22T11:27:20.988Z,87.92
2022-08-22T11:28:19.970Z,87.53
2022-08-22T11:29:19.938Z,84.32
2022-08-22T11:30:19.991Z,83.39
2022-08-22T11:31:20.110Z,83.04
2022-08-22T11:32:20.111Z,86.25
2022-08-22T11:33:20.176Z,84.15
2022-08-22T11:34:20.524Z,80.44
2022-08-22T11:35:20.313Z,81.07
2022-08-22T11:36:20.381Z,81.70
2022-08-22T11:37:20.424Z,76.91
2022-08-22T11:38:20.475Z,74.67
2022-08-22T11:39:20.545Z,77.79
2022-08-22T11:40:20.811Z,79.90
2022-08-22T11:41:20.735Z,81.07
2022-08-22T11:42:21.871Z,76.87
2022-08-22T11:43:20.801Z,72.64
2022-08-22T11:44:20.879Z,71.31
2022-08-22T11:45:21.446Z,70.96
2022-08-22T11:46:20.977Z,67.44
2022-08-22T11:47:26.698Z,66.56
2022-08-22T11:48:21.093Z,68.32
2022-08-22T11:49:21.237Z,65.14
2022-08-22T11:50:22.173Z,66.60
2022-08-22T11:51:47.205Z,74.61
2022-08-22T11:52:36.223Z,78.32
2022-08-22T11:53:21.465Z,69.65
2022-08-22T11:54:21.564Z,73.68
2022-08-22T11:55:21.657Z,74.13
2022-08-22T11:56:22.230Z,72.09
2022-08-22T11:57:21.644Z,70.76
2022-08-22T11:58:21.763Z,75.92
2022-08-22T11:59:27.240Z,81.15
2022-08-22T12:00:30.523Z,75.37
2022-08-22T12:01:23.735Z,78.30
2022-08-22T12:39:19.892Z,58.09
2022-08-22T12:39:52.914Z,59.85
2022-08-22T12:40:52.905Z,59.75
2022-08-22T12:41:52.985Z,60.89
2022-08-22T12:42:53.028Z,59.72
2022-08-22T12:43:53.179Z,60.02
2022-08-22T12:44:53.167Z,59.66
2022-08-22T12:45:53.188Z,59.43
2022-08-22T12:46:53.258Z,59.33
2022-08-22T12:47:53.365Z,59.72
2022-08-22T12:48:53.434Z,60.50
2022-08-22T12:49:53.489Z,59.04
2022-08-22T12:50:53.534Z,57.84
2022-08-22T12:51:55.899Z,61.45
2022-08-22T12:52:54.297Z,60.28
2022-08-22T12:53:53.725Z,60.70
2022-08-22T12:54:53.763Z,56.33
2022-08-22T12:55:53.855Z,56.36
2022-08-22T12:56:53.895Z,58.61
2022-08-22T12:57:54.219Z,57.92
2022-08-22T12:58:54.027Z,56.52
2022-08-22T12:59:54.117Z,57.99
2022-08-22T13:00:54.253Z,57.63
2022-08-22T13:01:54.217Z,54.46
2022-08-22T13:02:54.280Z,55.99
2022-08-22T13:03:54.346Z,56.29
2022-08-22T13:04:54.411Z,54.43
2022-08-22T13:05:57.182Z,57.76
2022-08-22T13:06:54.568Z,54.60
2022-08-22T13:07:54.686Z,55.87
2022-08-22T13:08:54.669Z,54.99
2022-08-22T13:09:54.779Z,54.21
2022-08-22T13:10:54.798Z,55.67
2022-08-22T13:11:54.868Z,55.67
2022-08-22T13:12:54.931Z,56.56
2022-08-22T13:13:56.383Z,56.58
2022-08-22T13:14:55.898Z,56.21
2022-08-22T13:15:55.132Z,54.85
2022-08-22T13:16:55.193Z,57.00
2022-08-22T13:17:55.334Z,54.46
2022-08-22T13:18:55.326Z,54.25
2022-08-22T13:19:55.401Z,56.09
2022-08-22T13:20:55.856Z,55.84
2022-08-22T13:21:55.517Z,56.08
2022-08-22T13:22:55.650Z,58.65
2022-08-22T13:24:22.526Z,58.45
2022-08-22T13:24:55.717Z,58.55
2022-08-22T13:25:55.786Z,59.66
2022-08-22T13:26:55.877Z,56.92
2022-08-22T13:27:55.918Z,55.99
2022-08-22T13:29:09.256Z,54.23
2022-08-22T13:29:57.133Z,55.14
2022-08-22T13:30:56.106Z,52.23
2022-08-22T13:31:56.312Z,52.23
2022-08-22T13:32:56.239Z,50.98
2022-08-22T13:33:56.328Z,52.06
2022-08-22T13:34:56.405Z,52.45
2022-08-22T13:35:56.486Z,53.43
2022-08-22T13:36:56.634Z,53.50
2022-08-22T13:37:56.605Z,55.76
2022-08-22T13:38:56.685Z,54.58
2022-08-22T13:39:56.809Z,55.73
2022-08-22T13:40:56.823Z,54.75
2022-08-22T13:41:56.910Z,54.46
2022-08-22T13:42:56.895Z,54.36
2022-08-22T13:43:57.002Z,55.24
2022-08-22T13:44:57.075Z,54.06
2022-08-22T13:45:57.140Z,54.09
2022-08-22T13:47:13.766Z,54.19
2022-08-22T13:47:57.266Z,55.14
2022-08-22T13:49:00.744Z,55.53
2022-08-22T13:49:57.356Z,56.02
2022-08-22T13:50:57.468Z,54.55
2022-08-22T13:51:57.545Z,55.31
2022-08-22T13:52:57.612Z,55.60
2022-08-22T13:54:01.071Z,55.77
2022-08-22T13:54:57.728Z,55.99
2022-08-22T13:55:57.803Z,55.28
2022-08-22T13:56:57.946Z,55.28
2022-08-22T13:57:57.929Z,53.42
2022-08-22T13:58:57.978Z,56.85
2022-08-22T14:00:05.567Z,55.08
2022-08-22T14:00:58.144Z,52.44
2022-08-22T14:01:58.293Z,55.80
2022-08-22T14:02:58.351Z,54.36
2022-08-22T14:03:58.345Z,55.46
2022-08-22T14:04:58.403Z,54.02
2022-08-22T14:05:59.050Z,54.63
2022-08-22T14:06:58.586Z,52.94
2022-08-22T14:07:58.589Z,54.36
2022-08-22T14:08:58.663Z,54.94
2022-08-22T14:09:58.726Z,55.24
2022-08-22T14:11:02.016Z,53.42
2022-08-22T14:11:58.933Z,54.30
2022-08-22T14:12:58.924Z,54.13
2022-08-22T14:13:58.983Z,54.72
2022-08-22T14:14:59.067Z,55.73
2022-08-22T14:15:59.118Z,54.33
2022-08-22T14:16:59.221Z,53.47
2022-08-22T14:17:59.243Z,54.06
2022-08-22T14:18:59.325Z,54.36
2022-08-22T14:20:01.405Z,54.06
2022-08-22T14:20:59.447Z,53.96
2022-08-22T14:21:59.697Z,56.09
2022-08-22T14:23:03.872Z,54.75
2022-08-22T14:23:59.742Z,54.52
2022-08-22T14:24:59.713Z,53.63
2022-08-22T14:25:59.839Z,54.25
2022-08-22T14:26:59.800Z,53.33
2022-08-22T14:28:01.045Z,54.67
2022-08-22T14:29:00.054Z,55.06
2022-08-22T14:30:00.042Z,56.92
2022-08-22T14:31:00.939Z,54.38
2022-08-22T14:32:00.132Z,54.60
2022-08-22T14:33:00.213Z,54.62
2022-08-22T14:34:00.264Z,54.23
2022-08-22T14:35:00.364Z,56.19
2022-08-22T14:36:00.444Z,55.77
2022-08-22T14:37:00.558Z,53.77
2022-08-22T14:38:00.837Z,53.74
2022-08-22T14:39:00.649Z,54.23
2022-08-22T14:40:00.753Z,53.64
2022-08-22T14:41:00.904Z,51.51
2022-08-22T14:42:03.945Z,53.40
2022-08-22T14:43:00.916Z,52.42
2022-08-22T14:44:00.986Z,50.90
2022-08-22T14:45:01.056Z,52.55
2022-08-22T14:46:02.026Z,52.74
2022-08-22T14:47:01.184Z,53.72
2022-08-22T14:48:14.520Z,55.07
2022-08-22T14:49:01.263Z,50.78
2022-08-22T14:50:01.326Z,52.84
2022-08-22T14:51:01.422Z,51.44
2022-08-22T14:52:01.464Z,49.41
2022-08-22T14:53:01.557Z,50.04
2022-08-22T14:54:01.586Z,49.38
2022-08-22T14:55:06.168Z,47.64
2022-08-22T14:56:01.723Z,46.90
2022-08-22T14:57:01.795Z,46.50
2022-08-22T14:58:03.415Z,47.61
2022-08-22T14:59:01.918Z,50.27
2022-08-22T15:00:01.979Z,48.77
2022-08-22T15:01:02.048Z,50.81
2022-08-22T15:02:02.266Z,51.86
2022-08-22T15:03:02.188Z,51.37
2022-08-22T15:04:02.302Z,52.94
2022-08-22T15:05:02.347Z,50.98
2022-08-22T15:06:02.412Z,50.59
2022-08-22T15:07:02.477Z,51.96
2022-08-22T15:08:02.541Z,52.15
2022-08-22T15:09:07.855Z,49.33
2022-08-22T15:10:03.106Z,51.86
2022-08-22T15:11:02.725Z,50.49
2022-08-22T15:12:03.890Z,53.43
2022-08-22T15:13:02.856Z,53.13
2022-08-22T15:14:02.952Z,51.62
2022-08-22T15:15:03.005Z,49.77
2022-08-22T15:16:08.037Z,51.86
2022-08-22T15:17:03.133Z,52.10
2022-08-22T15:18:03.288Z,50.37
2022-08-22T15:19:03.242Z,50.17
2022-08-22T15:20:03.340Z,52.30
2022-08-22T15:21:03.380Z,53.77
2022-08-22T15:22:03.442Z,53.96
2022-08-22T15:23:03.580Z,54.01
2022-08-22T15:24:03.590Z,54.89
2022-08-22T15:25:03.687Z,55.18
2022-08-22T15:26:03.796Z,55.70
2022-08-22T15:27:06.854Z,53.80
2022-08-22T15:28:05.604Z,52.23
2022-08-22T15:29:04.301Z,51.81
2022-08-22T15:30:04.048Z,49.99
2022-08-22T15:31:04.093Z,50.54
2022-08-22T15:32:04.208Z,51.29
2022-08-22T15:33:04.219Z,52.96
2022-08-22T15:34:04.262Z,48.96
2022-08-22T15:35:04.342Z,50.90
2022-08-22T15:36:04.407Z,49.90
2022-08-22T15:37:08.336Z,48.72
2022-08-22T15:38:04.528Z,50.85
2022-08-22T15:39:04.610Z,49.77
2022-08-22T15:40:08.204Z,49.82
2022-08-22T15:41:04.751Z,49.75
2022-08-22T15:42:04.812Z,47.93
2022-08-22T15:43:04.828Z,49.04
2022-08-22T15:44:04.903Z,47.74
2022-08-22T15:45:04.958Z,48.23
2022-08-22T15:46:05.029Z,48.35
2022-08-22T15:47:05.123Z,48.43
2022-08-22T15:48:05.162Z,46.36
2022-08-22T15:49:05.224Z,49.55
2022-08-22T15:50:05.624Z,49.09
2022-08-22T15:51:05.362Z,52.50
2022-08-22T15:52:05.474Z,51.61
2022-08-22T15:53:06.817Z,51.81
2022-08-22T15:54:16.342Z,52.79
2022-08-22T15:55:05.610Z,49.87
2022-08-22T15:56:05.711Z,49.85
2022-08-22T15:57:06.386Z,50.66
2022-08-22T15:58:05.906Z,49.60
2022-08-22T15:59:05.874Z,51.49
2022-08-22T16:00:12.361Z,49.92
2022-08-22T16:01:06.011Z,49.43
2022-08-22T16:02:06.105Z,49.36
2022-08-22T16:03:06.184Z,50.51
2022-08-22T16:04:06.201Z,49.51
2022-08-22T16:05:06.270Z,49.85
2022-08-22T16:06:07.421Z,50.93
2022-08-22T16:07:09.487Z,51.39
2022-08-22T16:08:06.486Z,50.27
2022-08-22T16:09:06.541Z,51.88
2022-08-22T16:10:06.596Z,54.44
2022-08-22T16:11:06.663Z,56.35
2022-08-22T16:12:06.739Z,58.40
2022-08-22T16:13:06.808Z,58.94
2022-08-22T16:14:06.855Z,60.17
2022-08-22T16:15:06.914Z,63.62
2022-08-22T16:16:06.985Z,61.47
2022-08-22T16:17:07.051Z,64.26
2022-08-22T16:18:07.148Z,62.61
2022-08-22T16:19:07.172Z,62.41
2022-08-22T16:20:07.232Z,64.07
2022-08-22T16:21:07.295Z,64.14
2022-08-22T16:22:07.362Z,64.43
2022-08-22T16:23:07.439Z,63.55
2022-08-22T16:24:07.504Z,64.72
2022-08-22T16:25:10.170Z,65.98
2022-08-22T16:26:07.615Z,66.44
2022-08-22T16:27:07.651Z,67.41
2022-08-22T16:28:07.738Z,67.70
2022-08-22T16:29:07.774Z,68.44
2022-08-22T16:30:07.856Z,66.30
2022-08-22T16:31:07.892Z,65.14
2022-08-22T16:32:07.951Z,68.44
2022-08-22T16:33:18.040Z,68.83
2022-08-22T16:34:08.081Z,68.31
2022-08-22T16:35:08.131Z,68.21
2022-08-22T16:36:08.181Z,68.37
2022-08-22T16:37:08.340Z,68.28
2022-08-22T16:38:08.340Z,69.34
2022-08-22T16:39:08.366Z,68.86
2022-08-22T16:40:08.443Z,70.21
2022-08-22T16:41:08.467Z,67.89
2022-08-22T16:42:08.980Z,68.66
2022-08-22T16:43:08.583Z,69.86
2022-08-22T16:44:08.642Z,71.58
2022-08-22T16:45:08.752Z,71.28
2022-08-22T16:46:08.806Z,69.93
2022-08-22T16:47:08.811Z,70.70
2022-08-22T16:48:14.342Z,72.06
2022-08-22T16:49:08.920Z,68.44
2022-08-22T16:50:08.977Z,70.41
2022-08-22T18:21:29.599Z,91.97
2022-08-22T18:22:29.610Z,93.23
2022-08-22T18:23:36.268Z,91.97
2022-08-22T18:24:33.111Z,92.74
2022-08-22T18:25:29.756Z,91.88
2022-08-22T18:26:29.835Z,90.62
2022-08-22T18:27:35.218Z,91.59
2022-08-22T18:28:29.914Z,92.36
2022-08-22T18:29:29.965Z,93.62
2022-08-22T18:30:30.018Z,93.13
2022-08-22T18:31:30.103Z,93.42
2022-08-22T18:32:30.119Z,93.52
2022-08-22T18:33:32.193Z,94.63
2022-08-22T18:34:30.225Z,94.73
2022-08-22T18:35:30.303Z,95.11
2022-08-22T18:36:30.331Z,94.53
2022-08-22T18:37:30.407Z,93.95
2022-08-22T18:38:33.076Z,94.43
